Time;durP1;ratioP1;P1;durP2;ratioP2;P2;SDS_P1;SDS_P2;PMS_P1;PMS_P2;Temp;Humidity;BMP_temperature;BMP_pressure;BME280_temperature;BME280_humidity;BME280_pressure;Samples;Min_cycle;Max_cycle;Signal;HPM_P1;HPM_P2
2021/12/11 00:01:07;;;;;;;33.90;18.30;;;;;;;6.66;92.91;99253.98;102127;1319;139716;-66
2021/12/11 00:03:39;;;;;;;;;;;;;;;6.66;92.75;99253.93;102104;1319;22627;-67
2021/12/11 00:06:21;;;;;;;69.40;32.10;;;;;;;6.66;93.12;99255.44;105956;1319;125745;-68
2021/12/11 00:08:56;;;;;;;370.00;105.70;;;;;;;6.65;92.91;99254.61;106123;1319;23321;-69
2021/12/11 00:11:29;;;;;;;54.90;24.50;;;;;;;6.65;92.84;99260.29;106141;1319;22482;-68
2021/12/11 00:13:59;;;;;;;106.20;36.00;;;;;;;6.65;93.18;99258.78;106009;1319;138215;-68
2021/12/11 00:16:29;;;;;;;40.60;23.80;;;;;;;6.66;92.98;99264.48;106100;1319;23267;-68
2021/12/11 00:19:02;;;;;;;82.80;34.30;;;;;;;6.67;93.04;99259.84;105991;1319;138055;-68
2021/12/11 00:21:31;;;;;;;39.60;20.70;;;;;;;6.67;92.98;99256.77;106112;1319;22587;-68
2021/12/11 00:24:11;;;;;;;31.30;17.70;;;;;;;6.66;93.05;99256.80;105405;1319;139280;-67
2021/12/11 00:26:48;;;;;;;43.90;24.40;;;;;;;6.66;92.97;99258.15;106093;1319;22961;-68
2021/12/11 00:29:20;;;;;;;40.90;23.70;;;;;;;6.66;93.05;99260.98;106115;1319;22500;-67
2021/12/11 00:31:49;;;;;;;128.60;52.80;;;;;;;6.68;92.68;99268.15;106025;1320;137630;-67
2021/12/11 00:34:18;;;;;;;58.90;28.40;;;;;;;6.68;92.98;99262.69;104158;1319;22608;-67
2021/12/11 00:37:00;;;;;;;31.60;20.00;;;;;;;6.69;93.00;99267.10;101967;1319;138810;-66
2021/12/11 00:39:29;;;;;;;38.70;24.30;;;;;;;6.69;93.17;99268.33;101982;1319;22569;-66
2021/12/11 00:42:00;;;;;;;40.00;23.50;;;;;;;6.69;92.99;99259.02;101894;1320;137951;-66
2021/12/11 00:44:36;;;;;;;35.40;21.80;;;;;;;6.67;92.96;99261.16;102006;1319;23990;-67
2021/12/11 00:47:08;;;;;;;33.30;21.20;;;;;;;6.67;93.07;99261.70;102056;1319;22575;-67
2021/12/11 00:49:44;;;;;;;27.10;19.10;;;;;;;6.67;93.11;99261.30;101964;1319;139679;-67
2021/12/11 00:52:12;;;;;;;33.40;23.70;;;;;;;6.65;93.23;99259.74;101926;1319;25150;-67
2021/12/11 00:54:42;;;;;;;48.60;30.30;;;;;;;6.64;93.39;99262.86;101994;1319;138189;-67
2021/12/11 00:57:11;;;;;;;29.70;20.10;;;;;;;6.63;93.33;99270.40;106133;1319;23413;-67
2021/12/11 00:59:39;;;;;;;36.20;24.20;;;;;;;6.61;93.42;99266.23;106124;1319;22454;-68
2021/12/11 01:02:08;;;;;;;34.90;24.70;;;;;;;6.60;93.70;99267.57;104016;1319;137455;-66
2021/12/11 01:04:41;;;;;;;38.10;21.30;;;;;;;6.60;93.93;99265.83;106089;1319;23299;-67
2021/12/11 01:07:20;;;;;;;89.60;37.70;;;;;;;6.59;94.00;99268.26;105995;1319;137361;-67
2021/12/11 01:10:13;;;;;;;62.60;30.70;;;;;;;6.58;93.96;99269.15;106069;1319;22501;-67
2021/12/11 01:12:49;;;;;;;51.60;26.80;;;;;;;6.58;94.03;99262.27;106007;1322;137630;-67
2021/12/11 01:15:27;;;;;;;53.00;30.40;;;;;;;6.58;94.20;99259.45;106166;1323;23208;-67
2021/12/11 01:20:56;;;;;;;57.30;27.90;;;;;;;6.57;94.34;99257.30;105537;1325;23235;-67
2021/12/11 01:26:21;;;;;;;70.10;32.60;;;;;;;6.55;94.49;99259.98;105366;1325;138579;-67
2021/12/11 01:28:49;;;;;;;74.80;38.70;;;;;;;6.56;94.67;99257.98;105438;1325;22629;-67
2021/12/11 01:31:18;;;;;;;59.60;35.80;;;;;;;6.57;94.79;99258.77;105337;1323;137802;-67
2021/12/11 01:33:46;;;;;;;65.90;34.70;;;;;;;6.57;94.60;99262.72;105413;1329;23102;-66
2021/12/11 01:36:14;;;;;;;53.10;31.00;;;;;;;6.56;95.09;99262.39;105351;1325;138299;-67
2021/12/11 01:38:42;;;;;;;75.80;40.80;;;;;;;6.57;95.00;99257.96;105451;1326;22573;-67
2021/12/11 01:41:19;;;;;;;102.90;50.90;;;;;;;6.58;95.28;99260.03;105404;1325;22431;-67
2021/12/11 01:43:48;;;;;;;94.50;40.20;;;;;;;6.58;95.03;99267.19;105168;1325;139286;-67
2021/12/11 01:46:21;;;;;;;138.70;47.60;;;;;;;6.58;95.09;99257.57;105477;1325;22525;-67
2021/12/11 01:48:51;;;;;;;78.00;36.10;;;;;;;6.59;95.34;99258.39;105353;1325;138142;-67
2021/12/11 01:51:25;;;;;;;56.40;30.70;;;;;;;6.60;95.19;99257.77;105431;1323;22520;-67
2021/12/11 01:54:03;;;;;;;51.30;29.50;;;;;;;6.62;95.47;99257.16;105453;1325;23282;-67
2021/12/11 01:56:32;;;;;;;172.70;68.90;;;;;;;6.64;95.51;99251.87;105381;1326;137721;-67
2021/12/11 01:59:06;;;;;;;82.20;36.60;;;;;;;6.65;95.49;99252.16;105432;1325;22547;-67
2021/12/11 02:01:45;;;;;;;56.90;30.10;;;;;;;6.66;95.62;99255.73;105360;1325;139522;-67
2021/12/11 02:04:15;;;;;;;74.10;41.80;;;;;;;6.68;95.60;99256.20;105884;1318;22966;-67
2021/12/11 02:06:44;;;;;;;47.80;26.00;;;;;;;6.69;95.63;99255.79;106036;1316;138313;-67
2021/12/11 02:09:20;;;;;;;38.00;22.70;;;;;;;6.70;95.52;99259.44;106143;1319;22469;-67
2021/12/11 02:11:51;;;;;;;47.20;26.40;;;;;;;6.71;95.34;99259.34;106079;1316;22511;-67
2021/12/11 02:14:25;;;;;;;56.20;33.10;;;;;;;6.72;95.54;99255.63;106007;1323;141053;-67
2021/12/11 02:16:53;;;;;;;33.10;22.50;;;;;;;6.72;95.52;99256.29;106113;1322;23401;-67
2021/12/11 02:19:28;;;;;;;46.90;26.70;;;;;;;6.73;95.56;99254.48;105976;1320;137856;-67
2021/12/11 02:21:59;;;;;;;47.20;25.50;;;;;;;6.73;95.42;99256.69;106177;1322;22481;-67
2021/12/11 02:24:37;;;;;;;31.20;22.70;;;;;;;6.73;95.62;99261.14;105934;1316;138057;-67
2021/12/11 02:27:11;;;;;;;26.60;19.50;;;;;;;6.76;95.45;99264.59;106153;1319;22408;-67
2021/12/11 02:29:41;;;;;;;30.90;20.40;;;;;;;6.78;95.33;99274.42;106093;1319;22863;-67
2021/12/11 02:32:30;;;;;;;31.60;20.50;;;;;;;6.78;95.44;99281.79;106014;1319;138947;-67
2021/12/11 02:35:08;;;;;;;32.00;21.20;;;;;;;6.79;95.22;99285.64;105311;1319;22478;-66
2021/12/11 02:37:41;;;;;;;28.20;20.10;;;;;;;6.80;95.38;99283.65;106052;1319;139534;-66
2021/12/11 02:40:52;;;;;;;32.80;20.60;;;;;;;6.82;95.65;99277.74;106066;1320;22480;-68
2021/12/11 02:43:27;;;;;;;27.70;19.90;;;;;;;6.83;95.37;99282.27;104998;1331;138785;-67
2021/12/11 02:46:16;;;;;;;28.10;20.10;;;;;;;6.83;95.20;99281.63;105338;1328;22593;-67
2021/12/11 02:48:50;;;;;;;29.40;20.70;;;;;;;6.83;95.31;99279.51;105166;1325;138258;-67
2021/12/11 02:51:36;;;;;;;28.70;20.70;;;;;;;6.83;95.36;99288.13;105256;1324;22442;-67
2021/12/11 02:54:12;;;;;;;27.20;20.20;;;;;;;6.84;95.15;99283.91;105175;1325;138429;-66
2021/12/11 02:56:50;;;;;;;25.30;19.10;;;;;;;6.85;95.15;99282.10;105240;1324;22506;-67
2021/12/11 02:59:21;;;;;;;27.80;20.60;;;;;;;6.85;95.13;99279.40;105238;1325;22491;-67
2021/12/11 03:02:01;;;;;;;34.40;21.90;;;;;;;6.87;95.09;99275.74;105211;1329;141706;-67
2021/12/11 03:04:36;;;;;;;33.20;20.50;;;;;;;6.87;95.18;99269.79;105272;1324;22440;-67
2021/12/11 03:07:07;;;;;;;33.00;21.90;;;;;;;6.86;94.93;99271.89;105147;1327;138253;-67
2021/12/11 03:09:37;;;;;;;52.50;26.50;;;;;;;6.86;95.13;99271.45;105319;1331;22543;-66
2021/12/11 03:12:08;;;;;;;62.00;29.20;;;;;;;6.86;94.82;99274.00;104313;1332;22423;-67
2021/12/11 03:14:36;;;;;;;45.20;25.10;;;;;;;6.86;95.12;99272.54;104941;1325;138325;-67
2021/12/11 03:17:04;;;;;;;30.20;22.20;;;;;;;6.86;94.91;99267.66;105285;1325;22451;-67
2021/12/11 03:19:33;;;;;;;30.20;22.90;;;;;;;6.85;94.89;99263.02;105196;1325;138684;-67
2021/12/11 03:22:03;;;;;;;27.30;21.20;;;;;;;6.85;94.98;99267.52;105958;1322;22539;-67
2021/12/11 03:24:33;;;;;;;79.70;33.70;;;;;;;6.84;94.86;99268.20;106038;1319;139377;-67
2021/12/11 03:27:01;;;;;;;60.80;29.60;;;;;;;6.84;94.73;99269.63;106090;1319;22521;-67
2021/12/11 03:29:29;;;;;;;50.40;27.90;;;;;;;6.83;94.86;99264.98;106158;1319;27835;-67
2021/12/11 03:31:57;;;;;;;44.50;28.70;;;;;;;6.82;94.93;99271.36;106048;1319;139836;-67
2021/12/11 03:34:26;;;;;;;51.60;26.90;;;;;;;6.81;94.87;99268.80;106103;1319;22515;-67
2021/12/11 03:36:55;;;;;;;48.50;24.80;;;;;;;6.81;94.59;99267.34;105096;1326;140873;-60
2021/12/11 03:39:26;;;;;;;30.20;22.00;;;;;;;6.81;94.73;99262.30;106020;1318;23245;-60
2021/12/11 03:41:54;;;;;;;32.90;21.50;;;;;;;6.81;94.52;99259.10;106131;1320;23099;-60
2021/12/11 03:44:31;;;;;;;64.10;35.20;;;;;;;6.81;94.54;99260.77;106028;1319;138108;-61
2021/12/11 03:47:05;;;;;;;55.20;38.70;;;;;;;6.80;94.42;99256.36;106139;1322;22605;-60
2021/12/11 03:49:33;;;;;;;42.70;32.80;;;;;;;6.79;94.59;99254.34;106014;1321;138514;-59
2021/12/11 03:52:02;;;;;;;35.50;26.50;;;;;;;6.80;94.68;99253.16;106138;1319;22519;-60
2021/12/11 03:54:31;;;;;;;34.70;25.00;;;;;;;6.79;94.57;99248.02;106012;1317;138258;-59
2021/12/11 03:56:59;;;;;;;40.40;26.00;;;;;;;6.79;94.44;99249.47;106082;1319;22654;-59
2021/12/11 03:59:31;;;;;;;35.80;23.50;;;;;;;6.78;94.35;99244.59;106142;1319;23332;-60
2021/12/11 04:02:03;;;;;;;38.60;24.70;;;;;;;6.78;94.11;99247.57;105383;1321;138854;-60
2021/12/11 04:04:38;;;;;;;28.80;21.60;;;;;;;6.76;94.40;99251.98;106132;1320;22571;-59
2021/12/11 04:07:08;;;;;;;29.90;21.60;;;;;;;6.74;94.28;99249.88;106042;1320;139103;-67
2021/12/11 04:09:36;;;;;;;30.40;21.30;;;;;;;6.73;94.15;99255.23;106136;1319;22509;-66
2021/12/11 04:12:04;;;;;;;31.20;22.10;;;;;;;6.72;94.29;99248.83;106154;1319;22487;-67
2021/12/11 04:14:35;;;;;;;29.40;21.30;;;;;;;6.71;94.40;99246.23;105993;1322;137893;-66
2021/12/11 04:17:03;;;;;;;30.30;22.20;;;;;;;6.69;94.17;99250.80;106068;1319;22487;-67
2021/12/11 04:19:33;;;;;;;34.00;26.50;;;;;;;6.68;94.21;99248.29;106027;1320;139023;-66
2021/12/11 04:22:01;;;;;;;32.10;25.00;;;;;;;6.67;94.31;99246.80;106120;1320;23265;-66
2021/12/11 04:24:29;;;;;;;27.90;21.80;;;;;;;6.66;94.36;99241.36;106000;1322;139617;-66
2021/12/11 04:26:59;;;;;;;29.20;19.60;;;;;;;6.65;94.25;99236.52;106104;1322;22542;-66
2021/12/11 04:29:28;;;;;;;46.50;28.00;;;;;;;6.64;94.25;99240.63;106111;1320;22475;-67
2021/12/11 04:31:57;;;;;;;31.60;23.40;;;;;;;6.63;94.54;99238.29;106069;1320;138082;-67
2021/12/11 04:34:32;;;;;;;31.80;24.50;;;;;;;6.62;94.19;99244.38;106104;1319;23404;-68
2021/12/11 04:37:16;;;;;;;37.00;23.90;;;;;;;6.62;94.34;99249.64;106033;1321;138220;-62
2021/12/11 04:39:46;;;;;;;27.20;19.90;;;;;;;6.61;94.17;99246.15;106143;1322;22417;-62
2021/12/11 04:45:12;;;;;;;29.20;20.90;;;;;;;6.60;94.44;99239.14;105908;1319;22475;-62
2021/12/11 04:47:52;;;;;;;31.80;22.00;;;;;;;6.59;94.29;99238.27;106115;1325;22502;-62
2021/12/11 04:50:33;;;;;;;32.20;22.00;;;;;;;6.59;94.26;99250.17;105197;1322;138952;-62
2021/12/11 04:53:05;;;;;;;27.00;20.20;;;;;;;6.60;94.07;99255.16;106116;1319;23400;-62
2021/12/11 04:55:53;;;;;;;30.30;19.50;;;;;;;6.60;94.27;99253.17;105530;1319;137856;-62
2021/12/11 05:04:39;;;;;;;29.10;20.00;;;;;;;6.61;94.39;99255.56;105498;1325;22463;-61
2021/12/11 05:07:06;;;;;;;27.50;19.60;;;;;;;6.60;94.17;99259.29;105172;1326;139004;-61
2021/12/11 05:09:42;;;;;;;29.40;20.00;;;;;;;6.61;94.15;99266.23;104716;1328;22574;-61
2021/12/11 05:14:45;;;;;;;32.00;19.20;;;;;;;6.61;94.08;99261.20;105448;1321;23249;-61
2021/12/11 05:17:14;;;;;;;32.40;21.20;;;;;;;6.60;94.02;99260.95;105446;1328;22494;-62
2021/12/11 05:19:43;;;;;;;31.20;21.80;;;;;;;6.60;94.01;99256.73;105364;1329;138172;-62
2021/12/11 05:22:11;;;;;;;31.60;20.00;;;;;;;6.60;94.02;99255.38;105447;1325;22408;-62
2021/12/11 05:24:42;;;;;;;28.30;20.60;;;;;;;6.59;93.89;99255.42;105316;1328;139455;-62
2021/12/11 05:27:10;;;;;;;34.40;20.60;;;;;;;6.59;93.94;99258.35;105448;1329;22485;-62
2021/12/11 05:29:39;;;;;;;26.60;20.80;;;;;;;6.59;93.94;99257.19;105413;1328;22513;-62
2021/12/11 05:32:10;;;;;;;33.20;26.00;;;;;;;6.58;93.99;99257.23;105319;1326;138584;-61
2021/12/11 05:34:39;;;;;;;37.70;24.60;;;;;;;6.57;93.91;99257.80;105480;1326;24364;-61
2021/12/11 05:37:07;;;;;;;33.30;23.30;;;;;;;6.57;94.08;99256.13;102043;1329;138788;-60
2021/12/11 05:39:35;;;;;;;40.20;27.00;;;;;;;6.56;94.24;99257.40;101449;1328;25028;-61
2021/12/11 05:42:04;;;;;;;38.60;26.90;;;;;;;6.55;94.37;99260.08;101919;1319;25351;-61
2021/12/11 05:44:33;;;;;;;35.80;23.80;;;;;;;6.54;94.37;99254.59;105788;1322;138818;-62
2021/12/11 05:47:02;;;;;;;32.80;22.00;;;;;;;6.53;94.70;99250.24;105060;1323;22541;-62
2021/12/11 05:49:31;;;;;;;33.90;24.10;;;;;;;6.52;94.44;99255.30;105997;1322;139044;-62
2021/12/11 05:52:00;;;;;;;39.40;26.60;;;;;;;6.51;94.35;99252.36;106084;1319;23252;-62
2021/12/11 05:54:28;;;;;;;35.90;23.30;;;;;;;6.51;94.61;99247.25;105989;1324;138422;-62
2021/12/11 05:57:02;;;;;;;34.20;23.10;;;;;;;6.50;94.76;99248.05;105980;1319;22552;-62
2021/12/11 05:59:30;;;;;;;33.30;23.00;;;;;;;6.50;94.47;99250.98;106138;1319;22569;-61
2021/12/11 06:01:59;;;;;;;36.60;23.30;;;;;;;6.50;94.95;99257.85;105987;1319;138075;-62
2021/12/11 06:04:31;;;;;;;32.50;20.50;;;;;;;6.49;94.55;99259.15;106101;1319;22401;-63
2021/12/11 06:07:00;;;;;;;30.60;22.30;;;;;;;6.49;94.90;99256.92;103018;1319;138553;-62
2021/12/11 06:09:29;;;;;;;35.20;22.30;;;;;;;6.48;94.68;99261.86;101999;1320;25396;-60
2021/12/11 06:12:00;;;;;;;28.50;20.30;;;;;;;6.47;94.67;99264.91;106100;1319;22620;-61
2021/12/11 06:14:28;;;;;;;36.10;21.10;;;;;;;6.47;94.89;99260.67;105110;1321;138365;-60
2021/12/11 06:16:59;;;;;;;31.20;21.20;;;;;;;6.47;94.59;99256.02;106078;1320;22897;-60
2021/12/11 06:19:28;;;;;;;34.10;22.00;;;;;;;6.47;94.46;99252.67;105490;1319;138036;-60
2021/12/11 06:21:56;;;;;;;33.70;21.60;;;;;;;6.47;94.44;99254.19;106174;1320;22454;-60
2021/12/11 06:24:24;;;;;;;35.30;23.60;;;;;;;6.47;94.62;99251.38;105966;1319;139150;-60
2021/12/11 06:26:53;;;;;;;29.10;20.70;;;;;;;6.48;94.22;99249.21;106328;1316;22476;-60
2021/12/11 06:29:21;;;;;;;27.10;18.80;;;;;;;6.49;94.48;99249.77;106403;1316;22482;-60
2021/12/11 06:31:50;;;;;;;30.70;20.40;;;;;;;6.50;94.31;99254.99;106243;1317;138433;-60
2021/12/11 06:34:18;;;;;;;30.60;20.20;;;;;;;6.50;94.15;99254.61;105807;1317;24120;-60
2021/12/11 06:36:46;;;;;;;28.20;18.70;;;;;;;6.51;94.24;99254.62;103464;1313;138223;-62
2021/12/11 06:39:16;;;;;;;29.20;20.50;;;;;;;6.50;93.97;99252.11;102090;1316;24280;-61
2021/12/11 06:41:47;;;;;;;34.40;20.30;;;;;;;6.52;93.70;99265.21;102128;1322;22983;-61
2021/12/11 06:44:16;;;;;;;33.10;20.40;;;;;;;6.53;93.69;99262.79;102199;1315;138025;-62
2021/12/11 06:46:44;;;;;;;32.10;20.80;;;;;;;6.53;93.41;99262.70;106265;1316;23541;-60
2021/12/11 06:49:12;;;;;;;28.50;20.10;;;;;;;6.53;93.28;99262.70;106099;1316;209060;-60
2021/12/11 06:51:40;;;;;;;30.50;21.80;;;;;;;6.54;93.26;99262.39;106351;1316;22444;-60
2021/12/11 06:54:09;;;;;;;29.30;20.00;;;;;;;6.54;93.21;99262.88;106277;1317;22541;-61
2021/12/11 06:56:38;;;;;;;24.90;18.80;;;;;;;6.56;92.90;99265.95;106235;1316;137851;-61
2021/12/11 06:59:06;;;;;;;26.60;19.70;;;;;;;6.56;92.85;99261.61;106189;1316;24453;-61
2021/12/11 07:01:36;;;;;;;30.80;19.90;;;;;;;6.56;92.61;99264.02;106273;1318;140193;-61
2021/12/11 07:04:11;;;;;;;30.80;21.20;;;;;;;6.57;92.54;99267.02;106342;1316;22406;-61
2021/12/11 07:06:43;;;;;;;27.10;19.10;;;;;;;6.58;92.47;99268.27;106259;1313;139166;-57
2021/12/11 07:09:12;;;;;;;30.00;19.60;;;;;;;6.58;92.46;99268.06;106395;1316;22403;-57
2021/12/11 07:11:42;;;;;;;35.70;20.60;;;;;;;6.59;92.31;99268.34;106307;1313;22605;-57
2021/12/11 07:14:12;;;;;;;28.10;19.80;;;;;;;6.59;92.42;99268.14;106217;1318;139166;-57
2021/12/11 07:16:41;;;;;;;26.90;19.20;;;;;;;6.59;92.23;99266.34;106271;1316;23493;-57
2021/12/11 07:19:09;;;;;;;30.40;19.40;;;;;;;6.59;92.24;99270.96;105878;1313;138523;-57
2021/12/11 07:21:37;;;;;;;31.90;20.70;;;;;;;6.59;92.16;99271.01;106396;1316;22493;-57
2021/12/11 07:24:06;;;;;;;29.00;18.40;;;;;;;6.59;92.41;99272.04;106381;1313;22402;-58
2021/12/11 07:26:35;;;;;;;35.50;21.60;;;;;;;6.60;91.89;99273.20;106239;1317;138766;-57
2021/12/11 07:29:11;;;;;;;28.90;20.30;;;;;;;6.60;92.12;99268.70;106438;1313;22479;-57
2021/12/11 07:31:41;;;;;;;33.80;21.80;;;;;;;6.59;92.12;99269.83;106263;1314;138087;-57
2021/12/11 07:34:09;;;;;;;28.00;20.30;;;;;;;6.60;92.23;99267.62;106352;1314;22451;-57
2021/12/11 07:36:39;;;;;;;32.50;22.10;;;;;;;6.60;91.98;99265.23;105995;1316;138982;-60
2021/12/11 07:39:09;;;;;;;31.20;23.10;;;;;;;6.61;92.00;99274.96;106358;1313;22840;-60
2021/12/11 07:41:39;;;;;;;28.90;22.10;;;;;;;6.62;91.92;99272.42;106392;1313;22449;-60
2021/12/11 07:44:07;;;;;;;30.00;20.80;;;;;;;6.62;92.03;99270.53;106303;1317;138088;-60
2021/12/11 07:46:35;;;;;;;27.50;21.20;;;;;;;6.62;91.90;99272.42;106324;1313;22523;-60
2021/12/11 07:49:04;;;;;;;33.60;22.10;;;;;;;6.62;91.62;99272.20;106275;1320;138500;-60
2021/12/11 07:51:32;;;;;;;32.10;23.20;;;;;;;6.63;91.97;99264.33;106391;1315;23275;-60
2021/12/11 07:54:00;;;;;;;29.20;22.10;;;;;;;6.62;91.92;99262.38;106388;1313;22487;-60
2021/12/11 07:56:29;;;;;;;34.50;22.90;;;;;;;6.63;91.75;99266.81;105346;1316;137877;-60
2021/12/11 07:58:59;;;;;;;31.00;21.90;;;;;;;6.64;91.69;99267.52;106351;1313;22455;-60
2021/12/11 08:01:27;;;;;;;34.40;22.20;;;;;;;6.64;91.55;99266.39;106286;1313;138540;-60
2021/12/11 08:03:59;;;;;;;27.40;20.80;;;;;;;6.64;91.75;99267.14;106357;1313;22451;-60
2021/12/11 08:06:28;;;;;;;34.30;22.40;;;;;;;6.64;91.61;99272.19;106266;1313;138172;-60
2021/12/11 08:08:56;;;;;;;43.50;23.20;;;;;;;6.63;91.70;99271.80;106359;1316;22512;-60
2021/12/11 08:11:28;;;;;;;32.70;21.70;;;;;;;6.62;91.52;99272.11;106300;1315;22497;-60
2021/12/11 08:13:56;;;;;;;29.20;21.30;;;;;;;6.61;91.87;99268.19;106085;1314;138813;-60
2021/12/11 08:16:31;;;;;;;29.90;20.50;;;;;;;6.59;91.78;99272.80;106403;1317;23604;-59
2021/12/11 08:19:00;;;;;;;31.30;22.30;;;;;;;6.56;91.52;99277.48;106236;1315;138537;-60
2021/12/11 08:21:29;;;;;;;27.90;21.50;;;;;;;6.55;91.95;99277.69;106299;1316;22424;-60
2021/12/11 08:24:04;;;;;;;32.00;22.40;;;;;;;6.54;92.03;99278.30;106340;1314;22465;-60
2021/12/11 08:26:33;;;;;;;31.00;21.80;;;;;;;6.52;92.02;99266.55;106180;1313;137886;-60
2021/12/11 08:29:02;;;;;;;30.80;22.80;;;;;;;6.49;92.17;99262.61;106330;1313;23672;-60
2021/12/11 08:31:33;;;;;;;32.50;22.00;;;;;;;6.47;92.34;99275.83;106260;1315;137991;-60
2021/12/11 08:34:01;;;;;;;28.70;21.10;;;;;;;6.43;92.35;99267.57;106291;1316;22278;-60
2021/12/11 08:36:29;;;;;;;29.30;21.10;;;;;;;6.39;92.55;99269.75;106236;1315;139867;-61
2021/12/11 08:38:59;;;;;;;32.10;21.80;;;;;;;6.36;92.67;99269.34;106321;1313;22448;-60
2021/12/11 08:41:28;;;;;;;29.40;20.30;;;;;;;6.33;92.70;99266.42;106304;1313;23757;-60
2021/12/11 08:44:04;;;;;;;28.20;21.00;;;;;;;6.29;93.15;99267.37;106171;1315;137942;-60
2021/12/11 08:46:33;;;;;;;30.30;21.80;;;;;;;6.25;92.98;99261.48;106306;1313;26166;-60
2021/12/11 08:49:05;;;;;;;30.10;20.10;;;;;;;6.23;93.27;99265.02;105937;1313;139365;-60
2021/12/11 08:51:36;;;;;;;32.90;21.80;;;;;;;6.20;93.39;99265.01;106317;1316;22506;-60
2021/12/11 08:54:04;;;;;;;33.90;20.30;;;;;;;6.17;93.73;99269.42;106364;1316;23232;-60
2021/12/11 08:56:35;;;;;;;34.40;21.10;;;;;;;6.15;93.60;99270.79;106243;1313;137829;-60
2021/12/11 08:59:04;;;;;;;32.00;21.40;;;;;;;6.13;93.70;99270.98;106395;1313;22479;-60
2021/12/11 09:01:40;;;;;;;33.10;19.30;;;;;;;6.11;94.12;99271.65;106231;1313;138043;-60
2021/12/11 09:04:21;;;;;;;26.60;19.40;;;;;;;6.09;94.01;99265.23;106328;1316;22460;-60
2021/12/11 09:07:05;;;;;;;26.40;19.40;;;;;;;6.08;93.80;99266.36;106294;1317;139282;-60
2021/12/11 09:09:38;;;;;;;27.20;19.20;;;;;;;6.07;94.30;99261.85;106358;1314;22379;-59
2021/12/11 09:12:20;;;;;;;25.30;17.80;;;;;;;6.04;94.14;99259.71;106379;1314;22415;-61
2021/12/11 09:14:51;;;;;;;26.30;18.90;;;;;;;6.03;94.21;99263.64;106293;1317;138240;-61
2021/12/11 09:17:29;;;;;;;29.80;19.20;;;;;;;6.01;94.10;99265.66;106387;1316;24361;-59
2021/12/11 09:20:02;;;;;;;;;;;;;;;6.02;94.37;99265.08;106234;1313;139212;-62
2021/12/11 09:22:43;;;;;;;27.90;19.20;;;;;;;6.02;94.28;99263.33;106396;1313;23279;-61
2021/12/11 09:25:19;;;;;;;33.80;19.90;;;;;;;6.01;94.29;99269.58;106101;1316;138629;-61
2021/12/11 09:27:51;;;;;;;29.00;20.60;;;;;;;6.00;94.26;99265.23;106392;1317;22492;-61
2021/12/11 09:30:51;;;;;;;30.60;19.80;;;;;;;5.98;94.27;99265.80;106381;1314;22380;-61
2021/12/11 09:33:28;;;;;;;28.90;19.40;;;;;;;5.96;94.23;99267.36;106192;1316;23557;-61
2021/12/11 09:36:00;;;;;;;28.20;19.80;;;;;;;5.94;94.15;99266.33;106360;1314;23190;-61
2021/12/11 09:38:30;;;;;;;29.00;19.30;;;;;;;5.93;94.45;99261.98;106290;1316;138031;-61
2021/12/11 09:40:59;;;;;;;31.40;21.80;;;;;;;5.92;94.16;99270.08;106398;1316;22468;-59
2021/12/11 09:44:05;;;;;;;27.50;19.10;;;;;;;5.89;94.40;99269.58;106240;1316;139258;-59
2021/12/11 09:47:02;;;;;;;29.60;21.40;;;;;;;5.87;94.00;99272.88;105797;1316;23777;-62
2021/12/11 09:49:33;;;;;;;30.20;19.70;;;;;;;5.86;94.12;99267.02;106228;1315;139115;-61
2021/12/11 09:52:16;;;;;;;29.40;21.10;;;;;;;5.83;94.20;99264.69;106373;1316;23398;-61
2021/12/11 09:54:47;;;;;;;34.70;22.80;;;;;;;5.83;94.25;99263.91;106360;1316;22512;-61
2021/12/11 09:57:17;;;;;;;36.00;22.60;;;;;;;5.81;94.30;99259.33;106293;1319;137850;-61
2021/12/11 09:59:45;;;;;;;34.80;21.70;;;;;;;5.79;94.24;99258.14;105614;1321;22607;-61
2021/12/11 10:02:19;;;;;;;32.70;21.30;;;;;;;5.77;94.29;99257.23;105995;1316;137906;-61
2021/12/11 10:05:03;;;;;;;30.80;21.30;;;;;;;5.74;94.72;99256.25;106394;1316;22553;-61
2021/12/11 10:07:38;;;;;;;31.80;20.60;;;;;;;5.71;94.45;99253.09;106243;1317;138587;-60
2021/12/11 10:10:08;;;;;;;35.50;20.30;;;;;;;5.68;94.27;99258.74;106288;1315;23201;-59
2021/12/11 10:12:39;;;;;;;33.00;20.60;;;;;;;5.66;94.35;99264.58;106413;1316;22486;-59
2021/12/11 10:15:20;;;;;;;34.80;20.90;;;;;;;5.64;94.43;99266.11;106261;1315;141379;-60
2021/12/11 10:17:52;;;;;;;29.60;19.10;;;;;;;5.63;94.27;99268.52;106370;1316;23312;-60
2021/12/11 10:20:27;;;;;;;27.70;19.20;;;;;;;5.62;94.45;99269.95;106283;1316;138676;-60
2021/12/11 10:22:57;;;;;;;29.90;19.00;;;;;;;5.61;94.33;99274.80;106349;1315;22514;-60
2021/12/11 10:25:30;;;;;;;29.60;19.70;;;;;;;5.61;94.43;99279.13;106224;1313;139064;-60
2021/12/11 10:28:03;;;;;;;32.70;20.70;;;;;;;5.60;94.12;99273.97;106399;1316;22451;-60
2021/12/11 10:30:33;;;;;;;30.10;18.60;;;;;;;5.61;94.49;99275.55;106302;1313;23206;-60
2021/12/11 10:33:03;;;;;;;33.80;19.80;;;;;;;5.60;94.38;99275.60;106282;1317;138362;-60
2021/12/11 10:35:34;;;;;;;30.60;19.20;;;;;;;5.60;94.36;99279.47;105764;1316;25987;-61
2021/12/11 10:38:04;;;;;;;27.70;18.30;;;;;;;5.59;94.05;99284.17;106232;1316;139058;-60
2021/12/11 10:40:35;;;;;;;25.70;17.00;;;;;;;5.59;94.09;99281.06;106352;1316;23349;-60
2021/12/11 10:43:10;;;;;;;27.60;17.10;;;;;;;5.58;94.50;99281.33;106195;1316;139815;-60
2021/12/11 10:45:38;;;;;;;24.30;16.20;;;;;;;5.56;93.97;99270.79;106364;1316;22400;-60
2021/12/11 10:48:11;;;;;;;25.60;15.80;;;;;;;5.55;93.95;99275.61;106365;1317;23301;-60
2021/12/11 10:52:04;;;;;;;25.60;15.30;;;;;;;5.56;94.00;99269.79;99390;1351;546384;-61
2021/12/11 10:54:32;;;;;;;24.10;15.30;;;;;;;5.53;94.05;99269.62;101374;1326;25070;-62
2021/12/11 10:57:00;;;;;;;24.90;16.30;;;;;;;5.53;94.24;99271.49;101020;1329;137499;-61
2021/12/11 10:59:30;;;;;;;26.80;15.40;;;;;;;5.51;94.26;99270.48;101048;1330;25463;-62
2021/12/11 11:02:05;;;;;;;27.90;17.90;;;;;;;5.50;94.30;99274.19;100826;1329;137668;-62
2021/12/11 11:04:39;;;;;;;28.00;18.40;;;;;;;5.48;94.53;99273.60;100947;1325;128146;-61
2021/12/11 11:07:07;;;;;;;23.70;16.20;;;;;;;5.48;94.40;99275.27;101520;1330;24407;-61
2021/12/11 11:09:38;;;;;;;28.20;17.00;;;;;;;5.46;94.68;99280.52;106222;1312;139320;-61
2021/12/11 11:12:10;;;;;;;26.60;18.30;;;;;;;5.44;94.61;99275.16;106270;1316;22593;-61
2021/12/11 11:14:41;;;;;;;21.40;15.30;;;;;;;5.43;94.70;99275.85;106232;1315;137729;-62
2021/12/11 11:17:12;;;;;;;22.90;15.40;;;;;;;5.43;94.86;99276.27;102931;1313;22658;-60
2021/12/11 11:19:40;;;;;;;19.50;13.90;;;;;;;5.43;94.83;99276.70;102094;1316;138148;-59
2021/12/11 11:22:14;;;;;;;21.40;13.50;;;;;;;5.41;94.96;99271.39;102324;1317;22646;-60
2021/12/11 11:24:46;;;;;;;19.70;14.70;;;;;;;5.40;94.90;99275.69;102311;1317;25383;-60
2021/12/11 11:27:15;;;;;;;20.10;14.00;;;;;;;5.38;95.09;99270.67;102228;1317;137717;-62
2021/12/11 11:29:43;;;;;;;15.80;12.00;;;;;;;5.36;94.92;99274.78;102258;1313;25451;-62
2021/12/11 11:32:15;;;;;;;18.80;11.50;;;;;;;5.34;95.07;99277.23;106252;1313;138482;-63
2021/12/11 11:34:43;;;;;;;15.20;11.30;;;;;;;5.31;95.16;99276.36;106385;1312;22406;-63
2021/12/11 11:37:18;;;;;;;22.80;12.00;;;;;;;5.29;95.24;99272.95;106337;1312;22506;-63
2021/12/11 11:39:47;;;;;;;17.40;10.70;;;;;;;5.27;95.21;99274.23;106279;1317;138058;-63
2021/12/11 11:42:19;;;;;;;16.00;11.90;;;;;;;5.27;95.51;99276.45;106383;1313;22497;-63
2021/12/11 11:44:48;;;;;;;17.20;11.80;;;;;;;5.27;95.56;99279.95;106178;1315;138616;-63
2021/12/11 11:47:18;;;;;;;18.00;12.50;;;;;;;5.26;95.19;99275.39;106271;1316;22603;-62
2021/12/11 11:49:49;;;;;;;18.00;12.80;;;;;;;5.26;95.56;99283.61;106177;1320;137833;-61
2021/12/11 11:52:18;;;;;;;20.40;13.00;;;;;;;5.27;95.47;99284.17;106256;1315;22479;-61
2021/12/11 11:54:47;;;;;;;16.20;10.90;;;;;;;5.28;95.56;99280.23;106288;1316;22341;-61